createdAt,value
2018-09-21T07:47:22.727Z,2.93
2018-09-21T07:49:50.934Z,3.93
2018-09-21T07:52:19.110Z,3.00
2018-09-21T07:54:47.028Z,3.37
2018-09-21T07:57:15.175Z,3.03
2018-09-21T07:59:43.338Z,3.10
2018-09-21T08:02:11.488Z,2.70
2018-09-21T08:04:39.643Z,2.93
2018-09-21T08:07:07.767Z,2.97
2018-09-21T08:09:35.968Z,2.60
2018-09-21T08:12:04.131Z,3.40
2018-09-21T08:14:32.050Z,3.17
2018-09-21T08:16:59.971Z,3.50
2018-09-21T08:19:28.173Z,2.73
2018-09-21T08:21:56.301Z,2.77
2018-09-21T08:24:24.264Z,2.87
2018-09-21T08:26:52.193Z,2.70
2018-09-21T08:29:20.140Z,2.50
2018-09-21T08:31:48.276Z,2.93
2018-09-21T08:34:16.462Z,3.10
2018-09-21T08:36:44.601Z,2.23
2018-09-21T08:39:12.914Z,2.50
2018-09-21T08:41:41.123Z,2.97
2018-09-21T08:44:09.614Z,2.40
2018-09-21T08:46:37.791Z,2.60
2018-09-21T08:49:06.005Z,2.77
2018-09-21T08:51:34.175Z,3.23
2018-09-21T08:54:02.340Z,3.23
2018-09-21T08:56:30.267Z,2.50
2018-09-21T08:58:58.470Z,2.60
2018-09-21T09:01:26.617Z,2.37
2018-09-21T09:03:54.773Z,2.47
2018-09-21T09:06:22.993Z,3.20
2018-09-21T09:08:51.196Z,1.90
2018-09-21T09:11:19.461Z,2.57
2018-09-21T09:13:47.407Z,2.10
2018-09-21T09:16:15.543Z,1.93
2018-09-21T09:18:43.699Z,2.23
2018-09-21T09:21:11.615Z,1.93
2018-09-21T09:23:39.832Z,1.90
2018-09-21T09:26:08.005Z,1.70
2018-09-21T09:28:35.916Z,1.70
2018-09-21T09:31:04.068Z,2.53
2018-09-21T09:33:32.031Z,1.03
2018-09-21T09:36:00.211Z,0.93
2018-09-21T09:38:28.412Z,0.97
2018-09-21T09:40:56.567Z,1.03
2018-09-21T09:43:24.825Z,1.10
2018-09-21T09:45:52.931Z,2.30
2018-09-21T09:48:21.214Z,2.00
2018-09-21T09:50:49.379Z,1.47
2018-09-21T09:53:17.303Z,1.97
2018-09-21T09:55:45.234Z,1.03
2018-09-21T09:58:13.391Z,1.40
2018-09-21T10:00:46.793Z,1.07
2018-09-21T10:03:14.935Z,1.83
2018-09-21T10:05:44.205Z,1.07
2018-09-21T10:08:13.414Z,1.30
2018-09-21T10:10:41.708Z,1.47
2018-09-21T10:13:10.506Z,1.23
2018-09-21T10:15:39.228Z,1.50
2018-09-21T10:18:07.651Z,1.27
2018-09-21T10:20:35.610Z,1.40
2018-09-21T10:23:03.850Z,1.40
2018-09-21T10:25:32.367Z,0.97
2018-09-21T10:28:00.410Z,1.40
2018-09-21T10:30:28.276Z,1.50
2018-09-21T10:32:56.467Z,1.07
2018-09-21T10:35:24.768Z,1.17
2018-09-21T10:37:52.932Z,1.87
2018-09-21T10:40:21.187Z,1.27
2018-09-21T10:42:49.757Z,1.30
2018-09-21T10:45:17.818Z,1.43
2018-09-21T10:47:46.104Z,2.40
2018-09-21T10:50:14.308Z,1.87
2018-09-21T10:52:42.571Z,1.00
2018-09-21T10:55:10.529Z,1.03
2018-09-21T10:57:38.714Z,1.37
2018-09-21T11:00:08.018Z,1.37
2018-09-21T11:02:36.291Z,0.80
2018-09-21T11:05:04.696Z,1.47
2018-09-21T11:07:32.880Z,1.50
2018-09-21T11:10:01.440Z,2.27
2018-09-21T11:12:29.724Z,1.00
2018-09-21T11:14:58.000Z,1.10
2018-09-21T11:17:26.191Z,1.40
2018-09-21T11:19:54.691Z,1.23
2018-09-21T11:22:22.681Z,1.47
2018-09-21T11:24:50.828Z,1.30
2018-09-21T11:27:19.537Z,1.27
2018-09-21T11:29:47.734Z,1.60
2018-09-21T11:32:15.900Z,1.63
2018-09-21T11:34:44.089Z,2.03
2018-09-21T11:37:12.275Z,1.30
2018-09-21T11:39:40.259Z,1.20
2018-09-21T11:42:08.423Z,1.17
2018-09-21T11:44:37.296Z,2.73
2018-09-21T11:47:05.533Z,1.60
2018-09-21T11:49:33.618Z,1.77
2018-09-21T11:52:01.632Z,2.20
2018-09-21T11:54:29.640Z,1.60
2018-09-21T11:56:57.596Z,1.50
2018-09-21T11:59:25.535Z,2.50
2018-09-21T12:01:53.713Z,1.60
2018-09-21T12:04:21.927Z,1.60
2018-09-21T12:06:49.982Z,1.37
2018-09-21T12:09:18.225Z,1.10
2018-09-21T12:11:46.190Z,0.97
2018-09-21T12:14:14.185Z,1.70
2018-09-21T12:16:42.406Z,1.53
2018-09-21T12:19:10.583Z,2.13
2018-09-21T12:21:38.578Z,1.90
2018-09-21T12:24:06.828Z,2.13
2018-09-21T12:26:35.073Z,1.00
2018-09-21T12:29:03.011Z,1.63
2018-09-21T12:31:30.925Z,1.63
2018-09-21T12:33:59.115Z,1.40
2018-09-21T12:36:27.346Z,1.33
2018-09-21T12:38:55.256Z,1.50
2018-09-21T12:41:23.292Z,2.00
2018-09-21T12:43:51.256Z,2.40
2018-09-21T12:46:25.148Z,1.23
2018-09-21T12:48:54.303Z,0.80
2018-09-21T12:51:22.502Z,0.53
2018-09-21T12:53:50.428Z,0.80
2018-09-21T12:56:18.668Z,0.73
2018-09-21T12:58:46.960Z,0.83
2018-09-21T13:01:14.743Z,0.50
2018-09-21T13:03:42.916Z,0.40
2018-09-21T13:06:10.858Z,1.03
2018-09-21T13:08:39.042Z,0.70
2018-09-21T13:11:06.966Z,0.80
2018-09-21T13:13:35.161Z,0.80
2018-09-21T13:16:03.074Z,0.60
2018-09-21T13:18:37.720Z,0.60
2018-09-21T13:21:06.032Z,1.00
2018-09-21T13:23:34.265Z,0.50
2018-09-21T13:26:02.219Z,1.47
2018-09-21T13:28:30.384Z,0.60
2018-09-21T13:30:58.549Z,0.77
2018-09-21T13:33:26.509Z,1.13
2018-09-21T13:35:54.682Z,0.50
2018-09-21T13:38:23.044Z,0.50
2018-09-21T13:40:50.989Z,0.40
2018-09-21T13:43:19.164Z,0.50
2018-09-21T13:45:47.346Z,0.83
2018-09-21T13:48:15.505Z,0.47
2018-09-21T13:50:43.687Z,0.70
2018-09-21T13:53:11.871Z,0.60
2018-09-21T13:55:39.808Z,0.53
2018-09-21T13:58:07.716Z,0.53
2018-09-21T14:00:35.679Z,0.60
2018-09-21T14:03:03.853Z,0.70
2018-09-21T14:05:32.033Z,0.60
2018-09-21T14:08:00.024Z,0.67
2018-09-21T14:10:28.294Z,1.07
2018-09-21T14:12:56.441Z,0.90
2018-09-21T14:15:24.396Z,0.70
2018-09-21T14:17:52.578Z,0.50
2018-09-21T14:20:20.516Z,0.50
2018-09-21T14:22:48.456Z,0.60
2018-09-21T14:25:16.668Z,0.70
2018-09-21T14:27:44.969Z,0.60
2018-09-21T14:30:13.124Z,1.07
2018-09-21T14:32:41.316Z,0.53
2018-09-21T14:35:09.535Z,0.80
2018-09-21T14:37:37.526Z,0.73
2018-09-21T14:40:05.747Z,0.60
2018-09-21T14:42:33.682Z,2.30
2018-09-21T14:45:01.616Z,0.60
2018-09-21T14:47:29.604Z,0.90
2018-09-21T14:49:57.566Z,0.70
2018-09-21T14:52:25.504Z,1.00
2018-09-21T14:54:53.702Z,1.00
2018-09-21T14:57:21.644Z,0.60
2018-09-21T14:59:50.857Z,0.50
2018-09-21T15:02:18.811Z,0.50
2018-09-21T15:04:47.003Z,0.57
2018-09-21T15:07:15.208Z,0.60
2018-09-21T15:09:44.019Z,0.70
2018-09-21T15:12:12.220Z,0.67
2018-09-21T15:14:40.429Z,0.43
2018-09-21T15:17:08.638Z,0.73
2018-09-21T15:19:36.784Z,0.70
2018-09-21T15:22:04.989Z,0.43
2018-09-21T15:24:32.970Z,0.50
2018-09-21T15:27:01.164Z,0.57
2018-09-21T15:29:29.096Z,2.10
2018-09-21T15:31:57.026Z,0.70
2018-09-21T15:34:24.940Z,0.63
2018-09-21T15:36:53.144Z,0.50
2018-09-21T15:39:22.167Z,1.07
2018-09-21T15:41:50.632Z,0.50
2018-09-21T15:44:18.848Z,0.60
2018-09-21T15:46:47.246Z,0.63
2018-09-21T15:49:15.199Z,0.90
2018-09-21T15:51:43.408Z,0.77
2018-09-21T15:54:11.341Z,0.50
2018-09-21T15:56:39.525Z,0.87
2018-09-21T15:59:07.680Z,0.60
2018-09-21T16:01:36.360Z,0.90
2018-09-21T16:04:04.542Z,0.50
2018-09-21T16:06:33.258Z,1.80
2018-09-21T16:09:02.609Z,0.80
2018-09-21T16:11:30.525Z,0.90
2018-09-21T16:13:58.708Z,0.50
2018-09-21T16:16:26.893Z,0.80
2018-09-21T16:18:54.839Z,0.60
2018-09-21T16:21:23.392Z,0.50
2018-09-21T16:23:52.178Z,1.77
2018-09-21T16:26:20.140Z,0.50
2018-09-21T16:28:48.361Z,0.60
2018-09-21T16:31:16.508Z,1.13
2018-09-21T16:33:44.440Z,1.00
2018-09-21T16:36:12.644Z,0.47
2018-09-21T16:38:41.191Z,0.63
2018-09-21T16:41:09.342Z,0.70
2018-09-21T16:43:37.512Z,1.27
2018-09-21T16:46:05.708Z,0.73
2018-09-21T16:48:33.917Z,0.47
2018-09-21T16:51:02.089Z,1.17
2018-09-21T16:53:30.252Z,2.00
2018-09-21T16:55:58.404Z,0.70
2018-09-21T16:58:26.316Z,0.50
2018-09-21T17:00:54.519Z,0.93
2018-09-21T17:03:22.757Z,0.70
2018-09-21T17:05:50.641Z,0.93
2018-09-21T17:08:18.857Z,0.70
2018-09-21T17:10:47.295Z,0.73
2018-09-21T17:13:15.442Z,0.80
2018-09-21T17:15:43.624Z,1.00
2018-09-21T17:18:11.796Z,0.90
2018-09-21T17:23:14.588Z,0.60
2018-09-21T17:25:42.827Z,0.77
2018-09-21T17:28:11.702Z,0.97
2018-09-21T17:30:39.890Z,0.63
2018-09-21T17:33:07.816Z,0.57
2018-09-21T17:35:35.993Z,0.97
2018-09-21T17:38:04.163Z,0.93
2018-09-21T17:40:32.326Z,0.80
2018-09-21T17:43:00.964Z,0.70
2018-09-21T17:45:28.915Z,1.07
2018-09-21T17:47:57.073Z,0.90
2018-09-21T17:50:25.013Z,0.70
2018-09-21T17:52:53.188Z,0.60
2018-09-21T17:55:21.385Z,1.20
2018-09-21T17:57:49.577Z,0.63
2018-09-21T18:00:17.748Z,0.47
2018-09-21T18:02:45.932Z,0.73
2018-09-21T18:05:14.088Z,0.60
2018-09-21T18:07:42.255Z,0.60
2018-09-21T18:10:10.418Z,0.70
2018-09-21T18:12:38.548Z,1.53
2018-09-21T18:15:06.757Z,0.90
2018-09-21T18:17:34.904Z,0.97
2018-09-21T18:20:02.832Z,0.93
2018-09-21T18:22:30.711Z,0.57
2018-09-21T18:24:58.840Z,0.77
2018-09-21T18:27:27.013Z,0.70
2018-09-21T18:29:55.164Z,0.57
2018-09-21T18:32:23.324Z,1.00
2018-09-21T18:34:51.483Z,0.70
2018-09-21T18:37:19.739Z,0.97
2018-09-21T18:39:47.864Z,0.50
2018-09-21T18:42:16.007Z,0.70
2018-09-21T18:44:44.276Z,1.23
2018-09-21T18:47:12.340Z,0.40
2018-09-21T18:49:40.483Z,1.10
2018-09-21T18:52:08.643Z,1.03
2018-09-21T18:54:36.835Z,0.57
2018-09-21T18:57:04.992Z,1.17
2018-09-21T18:59:33.153Z,1.20
2018-09-21T19:02:01.336Z,0.80
2018-09-21T19:04:29.490Z,1.13
2018-09-21T19:06:57.651Z,0.80
2018-09-21T19:09:25.832Z,1.70
2018-09-21T19:11:53.747Z,0.70
2018-09-21T19:14:21.932Z,0.60
2018-09-21T19:16:50.100Z,0.80
2018-09-21T19:19:18.268Z,1.20
2018-09-21T19:21:46.191Z,0.97
2018-09-21T19:24:14.376Z,0.87
2018-09-21T19:26:42.560Z,0.60
2018-09-21T19:29:10.497Z,0.73
2018-09-21T19:31:38.660Z,1.03
2018-09-21T19:34:06.873Z,1.13
2018-09-21T19:36:34.811Z,0.70
2018-09-21T19:39:03.000Z,0.90
2018-09-21T19:41:30.911Z,1.37
2018-09-21T19:43:59.083Z,0.80
2018-09-21T19:46:27.232Z,0.97
2018-09-21T19:48:55.402Z,0.70
2018-09-21T19:51:23.555Z,0.70
2018-09-21T19:53:51.709Z,0.73
2018-09-21T19:56:19.880Z,1.17
2018-09-21T19:58:48.048Z,0.90
2018-09-21T20:01:15.947Z,1.00
2018-09-21T20:03:44.109Z,1.33
2018-09-21T20:06:12.252Z,1.00
2018-09-21T20:08:40.421Z,0.40
2018-09-21T20:11:08.591Z,0.53
2018-09-21T20:13:36.782Z,0.87
2018-09-21T20:16:05.010Z,1.00
2018-09-21T20:18:33.152Z,0.80
2018-09-21T20:21:01.307Z,0.70
2018-09-21T20:23:29.244Z,0.67
2018-09-21T20:25:57.395Z,0.73
2018-09-21T20:28:25.554Z,1.00
2018-09-21T20:30:59.145Z,0.70
2018-09-21T20:33:28.148Z,0.80
2018-09-21T20:35:56.930Z,0.67
2018-09-21T20:38:25.192Z,0.93
2018-09-21T20:40:53.388Z,2.80
2018-09-21T20:43:21.581Z,1.33
2018-09-21T20:45:49.900Z,0.60
2018-09-21T20:48:18.173Z,1.50
2018-09-21T20:50:46.312Z,1.00
2018-09-21T20:53:14.480Z,1.60
2018-09-21T20:55:43.001Z,0.60
2018-09-21T20:58:11.819Z,1.17
2018-09-21T21:00:40.036Z,0.77
2018-09-21T21:03:08.012Z,1.23
2018-09-21T21:05:36.187Z,0.87
2018-09-21T21:08:04.340Z,1.10
2018-09-21T21:10:39.280Z,1.10
2018-09-21T21:13:07.480Z,1.00
2018-09-21T21:15:35.598Z,0.73
2018-09-21T21:18:03.544Z,1.20
2018-09-21T21:20:31.708Z,0.70
2018-09-21T21:22:59.916Z,0.80
2018-09-21T21:25:28.121Z,0.80
2018-09-21T21:27:56.280Z,1.10
2018-09-21T21:30:24.315Z,1.00
2018-09-21T21:32:52.261Z,0.90
2018-09-21T21:35:20.409Z,1.20
2018-09-21T21:37:48.570Z,1.73
2018-09-21T21:40:16.747Z,0.93
2018-09-21T21:42:44.659Z,1.50
2018-09-21T21:45:12.578Z,1.17
2018-09-21T21:47:40.754Z,2.53
2018-09-21T21:50:08.928Z,1.40
2018-09-21T21:52:37.101Z,2.63
2018-09-21T21:55:05.287Z,1.53
2018-09-21T21:57:33.437Z,1.20
2018-09-21T22:00:01.644Z,0.93
